Terminal Aerodrome Forecast
Issued by NWS Hastings, NE

Home | Current Version | Previous Version | Text Only | Print | Product List | Glossary On
Versions: 1 2 3 4 5 6 7 8 9 10 11 12 13 14 15 16 17 18 19 20 21 22 23 24 25 26 27 28 29 30 31 32
000
FTUS43 KGID 250527
TAFGRI
TAF
KGRI 250527Z 2506/2606 02009KT P6SM SHRA VCTS OVC008CB
      TEMPO 2507/2511 4SM RA OVC006
     FM251100 01010G18KT 6SM SHRA OVC008
     FM251600 36012G19KT P6SM SHRA OVC008
     FM260100 01009G17KT P6SM SHRA OVC008=

USA.gov is the U.S. government's official web portal to all federal, state and local government web resources and services.